createdAt,value
2019-05-06T00:00:19.266Z,4.10
2019-05-06T00:03:26.881Z,3.77
2019-05-06T00:09:24.098Z,4.30
2019-05-06T00:11:58.039Z,5.00
2019-05-06T00:14:27.977Z,4.47
2019-05-06T00:16:59.987Z,4.47
2019-05-06T00:19:30.421Z,4.67
2019-05-06T00:22:04.718Z,4.37
2019-05-06T00:24:40.755Z,4.73
2019-05-06T00:27:20.266Z,4.77
2019-05-06T00:29:49.110Z,4.23
2019-05-06T00:32:18.175Z,4.83
2019-05-06T00:34:47.514Z,4.47
2019-05-06T00:37:16.658Z,4.33
2019-05-06T00:40:05.547Z,4.87
2019-05-06T00:42:37.021Z,4.10
2019-05-06T00:45:06.903Z,4.63
2019-05-06T00:47:36.587Z,4.73
2019-05-06T00:50:06.837Z,4.80
2019-05-06T00:52:37.117Z,4.67
2019-05-06T00:55:07.442Z,4.27
2019-05-06T00:57:46.038Z,5.47
2019-05-06T01:00:20.810Z,5.28
2019-05-06T01:02:49.668Z,5.40
2019-05-06T01:05:18.897Z,5.20
2019-05-06T01:07:48.471Z,5.50
2019-05-06T01:10:18.297Z,5.43
2019-05-06T01:12:59.138Z,5.50
2019-05-06T01:15:28.952Z,4.70
2019-05-06T01:17:57.742Z,5.60
2019-05-06T01:20:27.238Z,5.10
2019-05-06T01:22:56.366Z,4.73
2019-05-06T01:25:25.525Z,4.90
2019-05-06T01:27:54.908Z,5.60
2019-05-06T01:30:24.407Z,5.63
2019-05-06T01:32:54.341Z,5.37
2019-05-06T01:35:24.637Z,5.30
2019-05-06T01:38:14.583Z,5.23
2019-05-06T01:41:03.985Z,4.30
2019-05-06T01:43:34.661Z,5.93
2019-05-06T01:46:04.706Z,4.93
2019-05-06T01:48:49.288Z,5.50
2019-05-06T01:51:19.496Z,5.20
2019-05-06T01:53:48.892Z,5.60
2019-05-06T01:56:18.234Z,4.53
2019-05-06T01:58:47.581Z,5.70
2019-05-06T02:01:16.933Z,4.43
2019-05-06T02:03:46.431Z,5.30
2019-05-06T02:06:15.485Z,5.40
2019-05-06T02:08:44.978Z,5.33
2019-05-06T02:11:15.039Z,5.43
2019-05-06T02:13:44.350Z,5.10
2019-05-06T02:16:14.616Z,5.30
2019-05-06T02:18:45.078Z,5.37
2019-05-06T02:21:40.190Z,4.93
2019-05-06T02:24:13.467Z,4.80
2019-05-06T02:26:45.994Z,4.90
2019-05-06T02:29:18.357Z,5.50
2019-05-06T02:32:17.480Z,5.40
2019-05-06T02:34:57.360Z,5.23
2019-05-06T02:37:35.310Z,5.35
2019-05-06T02:40:07.966Z,4.87
2019-05-06T02:42:43.206Z,5.60
2019-05-06T02:45:14.956Z,4.80
2019-05-06T02:48:05.035Z,5.17
2019-05-06T02:51:03.921Z,5.33
2019-05-06T02:53:34.780Z,5.73
2019-05-06T02:56:08.849Z,5.20
2019-05-06T02:58:38.533Z,5.30
2019-05-06T03:01:09.124Z,5.30
2019-05-06T03:03:38.925Z,5.37
2019-05-06T03:06:09.653Z,6.30
2019-05-06T03:08:39.778Z,5.40
2019-05-06T03:11:09.487Z,5.87
2019-05-06T03:13:43.782Z,6.17
2019-05-06T03:16:16.710Z,6.67
2019-05-06T03:18:46.450Z,6.80
2019-05-06T03:21:44.840Z,6.40
2019-05-06T03:24:33.234Z,5.78
2019-05-06T03:27:04.787Z,5.80
2019-05-06T03:29:36.537Z,7.20
2019-05-06T03:32:09.225Z,6.23
2019-05-06T03:35:00.560Z,6.77
2019-05-06T03:37:16.755Z,6.50
2019-05-06T03:39:46.333Z,5.90
2019-05-06T03:42:17.029Z,6.60
2019-05-06T03:44:53.390Z,5.90
2019-05-06T03:47:34.585Z,6.80
2019-05-06T03:50:05.091Z,6.70
2019-05-06T03:52:36.536Z,7.23
2019-05-06T03:55:07.834Z,7.47
2019-05-06T03:57:42.621Z,7.17
2019-05-06T04:00:15.988Z,7.03
2019-05-06T04:02:49.694Z,7.53
2019-05-06T04:05:19.470Z,8.87
2019-05-06T04:07:53.265Z,7.30
2019-05-06T04:10:24.711Z,8.27
2019-05-06T04:12:55.700Z,9.10
2019-05-06T04:15:36.983Z,8.97
2019-05-06T04:18:12.510Z,9.93
2019-05-06T04:20:53.213Z,8.87
2019-05-06T04:23:43.553Z,9.57
2019-05-06T04:26:25.486Z,10.13
2019-05-06T04:28:55.641Z,9.67
2019-05-06T04:31:28.193Z,10.30
2019-05-06T04:34:12.354Z,9.10
2019-05-06T04:36:33.821Z,10.00
2019-05-06T04:39:04.383Z,9.50
2019-05-06T04:41:38.155Z,9.27
2019-05-06T04:44:23.701Z,8.67
2019-05-06T04:46:54.569Z,8.90
2019-05-06T04:49:28.310Z,9.87
2019-05-06T04:52:03.530Z,8.50
2019-05-06T04:54:33.695Z,9.20
2019-05-06T04:57:05.204Z,10.20
2019-05-06T04:59:38.160Z,8.60
2019-05-06T05:02:16.598Z,12.23
2019-05-06T05:04:49.045Z,9.90
2019-05-06T05:07:19.371Z,8.90
2019-05-06T05:09:49.126Z,8.28
2019-05-06T05:12:42.560Z,8.47
2019-05-06T05:15:36.359Z,7.67
2019-05-06T05:18:26.768Z,7.67
2019-05-06T05:20:59.521Z,8.50
2019-05-06T05:23:31.801Z,8.40
2019-05-06T05:26:03.352Z,8.57
2019-05-06T05:28:47.486Z,7.70
2019-05-06T05:31:22.893Z,8.00
2019-05-06T05:33:59.168Z,8.60
2019-05-06T05:36:34.236Z,7.30
2019-05-06T05:39:05.365Z,8.10
2019-05-06T05:41:42.769Z,8.03
2019-05-06T05:44:22.735Z,8.53
2019-05-06T05:46:54.663Z,7.53
2019-05-06T05:49:52.910Z,6.90
2019-05-06T05:52:42.577Z,7.40
2019-05-06T05:55:26.864Z,7.20
2019-05-06T05:58:17.563Z,7.73
2019-05-06T06:00:59.757Z,7.63
2019-05-06T06:03:34.503Z,6.30
2019-05-06T06:06:07.676Z,7.37
2019-05-06T06:08:47.307Z,7.57
2019-05-06T06:11:27.985Z,7.40
2019-05-06T06:14:05.365Z,7.80
2019-05-06T06:17:01.542Z,7.07
2019-05-06T06:19:44.180Z,7.30
2019-05-06T06:22:22.763Z,7.00
2019-05-06T06:24:55.455Z,6.23
2019-05-06T06:27:33.090Z,6.83
2019-05-06T06:30:06.717Z,6.23
2019-05-06T06:32:37.437Z,6.93
2019-05-06T06:35:15.332Z,6.40
2019-05-06T06:38:12.300Z,6.60
2019-05-06T06:40:45.891Z,7.03
2019-05-06T06:43:22.910Z,7.00
2019-05-06T06:45:53.094Z,6.53
2019-05-06T06:48:27.934Z,6.93
2019-05-06T06:51:04.272Z,6.80
2019-05-06T06:53:35.582Z,6.67
2019-05-06T06:56:32.977Z,5.90
2019-05-06T06:59:22.076Z,7.40
2019-05-06T07:02:04.668Z,6.53
2019-05-06T07:04:49.507Z,6.63
2019-05-06T07:07:22.823Z,6.40
2019-05-06T07:10:05.415Z,7.10
2019-05-06T07:12:36.273Z,7.10
2019-05-06T07:15:17.226Z,7.00
2019-05-06T07:17:47.947Z,7.10
2019-05-06T07:20:23.701Z,6.50
2019-05-06T07:22:55.282Z,7.17
2019-05-06T07:25:25.033Z,7.00
2019-05-06T07:27:58.592Z,7.23
2019-05-06T07:30:34.037Z,7.40
2019-05-06T07:33:13.285Z,6.80
2019-05-06T07:35:43.913Z,7.40
2019-05-06T07:38:17.905Z,6.47
2019-05-06T07:40:54.485Z,7.40
2019-05-06T07:43:52.400Z,7.70
2019-05-06T07:46:33.119Z,7.87
2019-05-06T07:49:04.158Z,7.47
2019-05-06T07:51:34.784Z,6.90
2019-05-06T07:54:06.325Z,6.63
2019-05-06T07:56:36.870Z,7.00
2019-05-06T07:59:12.567Z,7.00
2019-05-06T08:01:44.290Z,7.27
2019-05-06T08:04:15.221Z,6.70
2019-05-06T08:06:47.182Z,7.10
2019-05-06T08:09:22.131Z,6.40
2019-05-06T08:11:53.363Z,6.37
2019-05-06T08:14:42.893Z,6.80
2019-05-06T08:17:22.305Z,5.93
2019-05-06T08:19:53.035Z,6.50
2019-05-06T08:22:47.833Z,6.47
2019-05-06T08:25:13.855Z,5.93
2019-05-06T08:27:49.384Z,6.53
2019-05-06T08:30:23.104Z,7.00
2019-05-06T08:33:02.293Z,6.33
2019-05-06T08:35:33.353Z,6.77
2019-05-06T08:38:03.458Z,6.93
2019-05-06T08:40:34.378Z,6.20
2019-05-06T08:43:06.359Z,5.73
2019-05-06T08:45:37.199Z,6.97
2019-05-06T08:48:15.425Z,5.80
2019-05-06T08:50:52.939Z,4.50
2019-05-06T08:53:49.661Z,5.63
2019-05-06T08:56:23.056Z,6.90
2019-05-06T08:58:54.301Z,6.47
2019-05-06T09:01:47.336Z,5.77
2019-05-06T09:04:17.660Z,5.83
2019-05-06T09:06:53.381Z,5.67
2019-05-06T09:09:32.777Z,5.60
2019-05-06T09:12:02.846Z,5.40
2019-05-06T09:14:38.617Z,5.57
2019-05-06T09:17:08.939Z,5.10
2019-05-06T09:19:43.316Z,5.57
2019-05-06T09:22:17.276Z,5.80
2019-05-06T09:24:48.474Z,5.00
2019-05-06T09:27:36.773Z,5.57
2019-05-06T09:30:18.374Z,6.27
2019-05-06T09:32:48.669Z,5.37
2019-05-06T09:35:18.695Z,5.87
2019-05-06T09:37:49.212Z,5.40
2019-05-06T09:40:19.334Z,4.90
2019-05-06T09:42:49.384Z,5.27
2019-05-06T09:45:19.671Z,4.23
2019-05-06T09:48:03.730Z,5.33
2019-05-06T09:50:46.289Z,4.97
2019-05-06T09:53:29.178Z,4.97
2019-05-06T09:56:25.933Z,4.83
2019-05-06T09:58:58.565Z,4.27
2019-05-06T10:01:28.995Z,4.00
2019-05-06T10:04:03.280Z,5.30
2019-05-06T10:06:34.908Z,3.43
2019-05-06T10:09:15.814Z,5.50
2019-05-06T10:11:45.963Z,4.30
2019-05-06T10:14:23.582Z,5.07
2019-05-06T10:16:53.262Z,4.80
2019-05-06T10:19:22.866Z,4.17
2019-05-06T10:21:53.179Z,5.03
2019-05-06T10:24:25.095Z,4.87
2019-05-06T10:26:59.611Z,5.43
2019-05-06T10:30:33.424Z,6.00
2019-05-06T10:33:23.600Z,5.47
2019-05-06T10:36:22.618Z,5.10
2019-05-06T10:40:13.474Z,5.50
2019-05-06T10:42:23.026Z,5.63
2019-05-06T10:45:44.361Z,5.80
2019-05-06T10:48:58.965Z,5.60
2019-05-06T10:52:16.615Z,5.17
2019-05-06T10:55:26.697Z,5.10
2019-05-06T10:58:22.570Z,5.40
2019-05-06T11:01:39.765Z,6.30
2019-05-06T11:08:02.349Z,5.50
2019-05-06T11:11:15.421Z,5.47
2019-05-06T11:17:23.159Z,5.17
2019-05-06T11:20:24.598Z,5.10
2019-05-06T11:23:29.379Z,5.00
2019-05-06T11:26:47.627Z,4.60
2019-05-06T11:33:48.612Z,4.90
2019-05-06T11:36:58.083Z,4.93
2019-05-06T11:39:28.061Z,5.57
2019-05-06T11:42:23.462Z,5.63
2019-05-06T11:44:36.231Z,5.92
2019-05-06T11:47:13.192Z,6.07
2019-05-06T11:49:55.345Z,6.07
2019-05-06T11:52:26.199Z,5.67
2019-05-06T11:55:02.046Z,5.00
2019-05-06T11:57:33.405Z,5.83
2019-05-06T12:00:03.284Z,4.50
2019-05-06T12:02:35.713Z,5.40
2019-05-06T12:05:05.569Z,5.08
2019-05-06T12:07:35.282Z,5.10
2019-05-06T12:10:05.195Z,5.03
2019-05-06T12:12:34.800Z,4.63
2019-05-06T12:15:07.018Z,4.90
2019-05-06T12:17:35.573Z,4.93
2019-05-06T12:20:05.895Z,6.53
2019-05-06T12:22:38.728Z,5.73
2019-05-06T12:25:15.091Z,6.00
2019-05-06T12:27:45.620Z,6.20
2019-05-06T12:30:24.857Z,6.23
2019-05-06T12:33:13.352Z,6.23
2019-05-06T12:35:47.295Z,7.90
2019-05-06T12:38:30.421Z,6.60
2019-05-06T12:40:54.411Z,6.80
2019-05-06T12:43:43.021Z,6.87
2019-05-06T12:46:24.991Z,6.27
2019-05-06T12:48:57.779Z,6.57
2019-05-06T12:51:28.221Z,5.90
2019-05-06T12:53:58.062Z,5.10
2019-05-06T12:56:30.038Z,5.20
2019-05-06T12:59:02.338Z,4.50
2019-05-06T13:01:33.969Z,4.60
2019-05-06T13:04:05.463Z,4.85
2019-05-06T13:06:35.886Z,4.47
2019-05-06T13:09:12.549Z,5.53
2019-05-06T13:11:43.156Z,5.00
2019-05-06T13:14:16.519Z,5.20
2019-05-06T13:16:53.209Z,5.73
2019-05-06T13:19:23.240Z,5.67
2019-05-06T13:21:57.666Z,6.30
2019-05-06T13:24:25.566Z,5.80
2019-05-06T13:27:03.063Z,5.90
2019-05-06T13:29:34.803Z,6.50
2019-05-06T13:32:02.165Z,5.30
2019-05-06T13:34:33.415Z,5.80
2019-05-06T13:37:06.074Z,5.33
2019-05-06T13:39:35.473Z,5.60
2019-05-06T13:42:05.324Z,5.10
2019-05-06T13:44:35.215Z,4.97
2019-05-06T13:47:06.811Z,4.90
2019-05-06T13:49:57.108Z,4.47
2019-05-06T13:52:33.978Z,4.60
2019-05-06T13:55:03.875Z,4.40
2019-05-06T13:57:33.486Z,5.47
2019-05-06T14:00:03.388Z,4.50
2019-05-06T14:02:43.801Z,5.40
2019-05-06T14:05:12.878Z,4.60
2019-05-06T14:07:43.463Z,5.07
2019-05-06T14:10:14.648Z,4.40
2019-05-06T14:12:56.381Z,5.10
2019-05-06T14:15:26.625Z,5.50
2019-05-06T14:17:59.027Z,5.50
2019-05-06T14:20:29.015Z,5.00
2019-05-06T14:22:58.972Z,5.60
2019-05-06T14:25:59.230Z,5.13
2019-05-06T14:28:47.476Z,5.47
2019-05-06T14:31:25.304Z,5.70
2019-05-06T14:34:00.705Z,6.60
2019-05-06T14:36:32.531Z,5.67
2019-05-06T14:39:04.670Z,7.33
2019-05-06T14:41:34.745Z,6.03
2019-05-06T14:44:05.356Z,5.53
2019-05-06T14:46:53.382Z,6.20
2019-05-06T14:49:22.903Z,6.60
2019-05-06T14:51:53.646Z,7.03
2019-05-06T14:54:28.590Z,7.60
2019-05-06T14:57:16.797Z,7.37
2019-05-06T14:59:46.511Z,6.33
2019-05-06T15:02:25.428Z,5.80
2019-05-06T15:04:53.476Z,6.27
2019-05-06T15:07:23.236Z,6.47
2019-05-06T15:10:02.400Z,6.50
2019-05-06T15:12:26.661Z,6.77
2019-05-06T15:14:59.123Z,5.80
2019-05-06T15:17:29.657Z,7.37
2019-05-06T15:19:59.317Z,6.90
2019-05-06T15:22:28.580Z,7.70
2019-05-06T15:25:02.531Z,8.63
2019-05-06T15:27:33.593Z,8.43
2019-05-06T15:30:08.029Z,9.17
2019-05-06T15:32:39.259Z,10.40
2019-05-06T15:35:29.267Z,9.27
2019-05-06T15:38:02.333Z,10.97
2019-05-06T15:40:36.417Z,10.77
2019-05-06T15:43:02.663Z,11.30
2019-05-06T15:45:32.471Z,9.80
2019-05-06T15:48:02.657Z,10.10
2019-05-06T15:50:32.827Z,10.17
2019-05-06T15:53:02.056Z,11.60
2019-05-06T15:55:32.635Z,10.90
2019-05-06T15:58:03.458Z,11.30
2019-05-06T16:00:33.237Z,11.73
2019-05-06T16:03:02.519Z,10.70
2019-05-06T16:05:34.331Z,9.53
2019-05-06T16:08:03.079Z,9.40
2019-05-06T16:10:50.942Z,10.33
2019-05-06T16:13:03.946Z,10.40
2019-05-06T16:15:33.746Z,11.00
2019-05-06T16:18:04.408Z,10.72
2019-05-06T16:20:33.565Z,10.60
2019-05-06T16:23:12.665Z,11.85
2019-05-06T16:25:42.381Z,11.20
2019-05-06T16:28:13.083Z,10.30
2019-05-06T16:30:42.653Z,9.83
2019-05-06T16:33:12.170Z,9.47
2019-05-06T16:35:42.688Z,9.80
2019-05-06T16:38:13.201Z,10.30
2019-05-06T16:40:45.402Z,11.23
2019-05-06T16:43:13.638Z,11.63
2019-05-06T16:45:45.312Z,13.07
2019-05-06T16:48:14.200Z,13.00
2019-05-06T16:50:43.484Z,13.47
2019-05-06T16:53:13.342Z,13.20
2019-05-06T16:56:06.571Z,12.37
2019-05-06T16:58:38.719Z,13.17
2019-05-06T17:01:08.498Z,11.70
2019-05-06T17:03:57.045Z,13.32
2019-05-06T17:06:29.717Z,12.20
2019-05-06T17:08:59.145Z,12.47
2019-05-06T17:11:33.410Z,12.00
2019-05-06T17:13:59.070Z,11.68
2019-05-06T17:16:28.144Z,12.33
2019-05-06T17:18:57.075Z,12.90
2019-05-06T17:21:26.438Z,12.60
2019-05-06T17:23:55.818Z,11.38
2019-05-06T17:26:25.466Z,11.30
2019-05-06T17:29:14.168Z,11.13
2019-05-06T17:31:52.870Z,12.53
2019-05-06T17:34:25.306Z,13.25
2019-05-06T17:36:56.182Z,16.27
2019-05-06T17:39:25.324Z,11.07
2019-05-06T17:41:54.364Z,9.67
2019-05-06T17:44:24.634Z,10.50
2019-05-06T17:47:18.846Z,10.40
2019-05-06T17:49:47.852Z,10.27
2019-05-06T17:52:22.171Z,10.17
2019-05-06T17:54:52.798Z,11.27
2019-05-06T17:57:22.533Z,10.37
2019-05-06T17:59:52.792Z,11.00
2019-05-06T18:02:23.435Z,11.60
2019-05-06T18:04:53.261Z,13.90
2019-05-06T18:07:43.247Z,13.40
2019-05-06T18:10:12.814Z,9.70
2019-05-06T18:12:41.645Z,8.60
2019-05-06T18:15:13.283Z,8.45
2019-05-06T18:17:42.644Z,8.67
2019-05-06T18:20:12.662Z,8.23
2019-05-06T18:22:43.122Z,9.17
2019-05-06T18:25:14.836Z,8.45
2019-05-06T18:27:45.742Z,8.77
2019-05-06T18:30:33.515Z,9.17
2019-05-06T18:33:02.319Z,9.97
2019-05-06T18:35:43.302Z,9.47
2019-05-06T18:38:27.077Z,8.83
2019-05-06T18:40:58.577Z,9.20
2019-05-06T18:43:33.212Z,8.87
2019-05-06T18:46:02.953Z,11.12
2019-05-06T18:48:35.015Z,10.23
2019-05-06T18:51:03.291Z,10.57
2019-05-06T18:53:33.306Z,9.57
2019-05-06T18:56:03.109Z,10.20
2019-05-06T18:58:32.826Z,9.63
2019-05-06T19:01:03.762Z,9.47
2019-05-06T19:03:42.954Z,10.00
2019-05-06T19:06:11.997Z,10.00
2019-05-06T19:08:46.752Z,8.80
2019-05-06T19:11:16.304Z,11.40
2019-05-06T19:13:45.162Z,10.15
2019-05-06T19:16:14.507Z,10.13
2019-05-06T19:18:43.307Z,10.48
2019-05-06T19:21:13.448Z,9.93
2019-05-06T19:23:42.853Z,9.70
2019-05-06T19:26:12.410Z,9.80
2019-05-06T19:28:43.023Z,10.13
2019-05-06T19:31:12.410Z,9.33
2019-05-06T19:33:43.086Z,9.07
2019-05-06T19:36:12.604Z,11.07
2019-05-06T19:38:42.344Z,10.50
2019-05-06T19:41:12.821Z,8.48
2019-05-06T19:43:42.215Z,8.90
2019-05-06T19:46:12.189Z,9.45
2019-05-06T19:48:43.195Z,10.87
2019-05-06T19:51:12.490Z,17.30
2019-05-06T19:53:42.842Z,13.00
2019-05-06T19:56:12.345Z,13.00
2019-05-06T19:58:42.872Z,15.00
2019-05-06T20:01:12.163Z,11.80
2019-05-06T20:03:41.453Z,10.53
2019-05-06T20:06:35.555Z,10.47
2019-05-06T20:09:23.949Z,9.30
2019-05-06T20:11:56.005Z,9.90
2019-05-06T20:14:25.217Z,12.80
2019-05-06T20:16:54.021Z,13.27
2019-05-06T20:19:30.677Z,13.17
2019-05-06T20:21:53.616Z,14.10
2019-05-06T20:24:23.077Z,12.00
2019-05-06T20:26:52.829Z,12.33
2019-05-06T20:29:22.559Z,13.73
2019-05-06T20:31:53.477Z,15.07
2019-05-06T20:34:28.815Z,17.83
2019-05-06T20:36:57.648Z,23.00
2019-05-06T20:39:26.846Z,25.00
2019-05-06T20:41:55.778Z,26.77
2019-05-06T20:44:24.829Z,19.97
2019-05-06T20:46:54.562Z,15.60
2019-05-06T20:49:23.905Z,13.13
2019-05-06T20:51:53.558Z,10.58
2019-05-06T20:54:23.761Z,9.90
2019-05-06T20:56:53.515Z,10.40
2019-05-06T20:59:23.024Z,10.37
2019-05-06T21:01:51.897Z,9.20
2019-05-06T21:04:22.881Z,8.67
2019-05-06T21:06:51.804Z,9.00
2019-05-06T21:09:23.098Z,8.87
2019-05-06T21:11:52.735Z,8.30
2019-05-06T21:14:22.775Z,9.90
2019-05-06T21:16:52.076Z,9.10
2019-05-06T21:19:22.296Z,9.10
2019-05-06T21:21:52.762Z,8.97
2019-05-06T21:24:22.661Z,9.37
2019-05-06T21:26:53.140Z,9.00
2019-05-06T21:29:23.267Z,9.03
2019-05-06T21:31:53.146Z,9.67
2019-05-06T21:34:22.481Z,10.53
2019-05-06T21:36:53.192Z,12.40
2019-05-06T21:39:22.605Z,16.42
2019-05-06T21:41:55.851Z,16.30
2019-05-06T21:44:25.115Z,17.50
2019-05-06T21:46:54.159Z,14.07
2019-05-06T21:49:23.469Z,11.10
2019-05-06T21:51:52.238Z,9.93
2019-05-06T21:54:23.158Z,8.70
2019-05-06T21:56:53.627Z,8.90
2019-05-06T21:59:22.931Z,8.90
2019-05-06T22:01:52.667Z,9.40
2019-05-06T22:04:23.181Z,9.30
2019-05-06T22:06:52.672Z,11.88
2019-05-06T22:09:22.589Z,12.43
2019-05-06T22:11:52.964Z,13.73
2019-05-06T22:14:22.936Z,14.27
2019-05-06T22:16:52.283Z,14.87
2019-05-06T22:19:21.279Z,13.53
2019-05-06T22:22:16.066Z,14.53
2019-05-06T22:24:46.864Z,14.03
2019-05-06T22:27:16.639Z,15.13
2019-05-06T22:29:46.545Z,15.07
2019-05-06T22:32:16.078Z,15.93
2019-05-06T22:34:45.815Z,14.27
2019-05-06T22:37:15.343Z,15.40
2019-05-06T22:39:45.690Z,17.10
2019-05-06T22:42:15.544Z,15.77
2019-05-06T22:44:48.135Z,15.10
2019-05-06T22:47:18.358Z,16.83
2019-05-06T22:49:55.894Z,16.30
2019-05-06T22:52:25.529Z,14.77
2019-05-06T22:54:55.186Z,17.10
2019-05-06T22:57:24.526Z,17.00
2019-05-06T22:59:54.528Z,16.57
2019-05-06T23:02:39.530Z,17.03
2019-05-06T23:05:12.128Z,17.70
2019-05-06T23:07:42.271Z,17.70
2019-05-06T23:10:12.238Z,18.20
2019-05-06T23:12:43.360Z,17.00
2019-05-06T23:15:12.539Z,18.40
2019-05-06T23:17:44.940Z,17.87
2019-05-06T23:20:13.990Z,17.37
2019-05-06T23:22:43.490Z,17.57
2019-05-06T23:25:15.884Z,18.10
2019-05-06T23:27:45.376Z,17.70
2019-05-06T23:30:14.427Z,17.10
2019-05-06T23:32:43.649Z,17.93
2019-05-06T23:35:13.054Z,17.23
2019-05-06T23:38:18.553Z,17.63
2019-05-06T23:41:42.782Z,18.20
2019-05-06T23:44:48.033Z,18.60
2019-05-06T23:47:53.310Z,18.63
2019-05-06T23:50:58.445Z,18.57
2019-05-06T23:54:03.329Z,18.07
2019-05-06T23:56:43.491Z,19.57
2019-05-06T23:59:12.564Z,21.13
